Bryant, WI (54418)

8:46 AM CDT on October 20, 2014 (GMT -0500)
Langlade County | Change Station
CLOSE
Current Station
Airport
Location: Antigo,
Elevation: 1522 ft
Nearby Weather Stations

Elev 1522 ft 45.16 °N, 89.11 °W | Updated 11 minutes ago

Overcast
Overcast
44 °F
Feels Like 39 °F
N
7
Wind Variable Wind from NW

Today
High -- | Low -- °F
--% Chance of Precip.
Yesterday
High -- | Low -- °F
Precip. -- in
7:18 AM 6:02 PM
Waning Crescent, 11% visible
Pressure 29.86 in
Visibility 7.0 miles
Clouds Scattered Clouds 1200 ft
Mostly Cloudy 1700 ft
Overcast 2900 ft
Windchill 39 °F
Dew Point 42 °F
Humidity 96%
Rainfall 0.00 in
Snow Depth Not available.
UV 0 out of 12
Pollen 1.30 out of 12
Air Quality Not available.
Flu Activity Sporadic
METAR KAIG 201335Z AUTO 32006KT 7SM SCT012 BKN017 OVC029 06/06 A2986 RMK AO2 T00640058

More Conditions Fewer Conditions

Pressure 29.86 in
Visibility 7.0 miles
Clouds Scattered Clouds 1200 ft
Mostly Cloudy 1700 ft
Overcast 2900 ft
Windchill 39 °F
Dew Point 42 °F
Humidity 96%
Rainfall 0.00 in
Snow Depth Not available.
UV 0 out of 12
Pollen 1.30 out of 12
Air Quality Not available.
Flu Activity Sporadic
METAR KAIG 201335Z AUTO 32006KT 7SM SCT012 BKN017 OVC029 06/06 A2986 RMK AO2 T00640058

More Conditions Fewer Conditions

10-Day Weather Forecast

Almanac

Astronomy

Oct. 20, 2014 Rise Set
Actual Time 7:18 AM CDT 6:02 PM CDT
Civil Twilight 6:48 AM CDT 6:32 PM CDT
Nautical Twilight 6:14 AM CDT 7:06 PM CDT
Astronomical Twilight 5:40 AM CDT 7:40 PM CDT
Moon 3:58 AM CDT 4:32 PM CDT
Length of Visible Light 11h 43m
Length of Day
10h 43m
Waning Crescent, 11% of the Moon is Illuminated
Today
Waning Crescent
Oct 23
New
Oct 30
First Quarter
Nov 6
Full
Nov 14
Last Quarter

Today's Extremes

State Highs State Lows

Community

WunderPhotos

Upload Photos

1,763,382 photos uploaded!

Nearby

Snow Depth

Station Depth Elevation
No new snow has been reported.

Earthquake Activity

City Distance Mag. Time & Date
No recent earthquake activity has been reported nearby.
Minimum magnitude displayed is 2.5.

Coastal Water Temperatures

Place Temperature
No Stations Reporting

Nearby Weather Stations